ADDS METAR Data INFO
IDs: Format: Raw Decoded Include TAF

Data at: 2107 UTC 19 Jul 2018

KDAG 192050Z AUTO 11013G20KT 070V150 10SM FEW100 41/16 A2991 RMK AO2 PK WND 10027/2025 SLP093 T04110156 58024
KDAG 191950Z AUTO 11008G15KT 080V150 10SM CLR 41/15 A2994 RMK AO2 SLP103 T04060150
KDAG 191850Z AUTO 17011G19KT 140V220 10SM CLR 39/14 A2996 RMK AO2 SLP110 T03890144
KDAG 191750Z AUTO 06010KT 10SM CLR 37/18 A2998 RMK AO2 SLP118 T03670183 10372 20283 58005
KDAG 191650Z AUTO 05009KT 10SM CLR 35/19 A2999 RMK AO2 SLP122 T03500194
KDAG 191550Z AUTO 07007KT 10SM CLR 33/18 A3000 RMK AO2 SLP126 T03330178
KDAG 191450Z AUTO 00000KT 10SM CLR 31/17 A3000 RMK AO2 SLP124 T03110172 53014
KDAG 191350Z AUTO 27004KT 10SM CLR 30/17 A2998 RMK AO2 SLP118 T03000172
KDAG 191250Z AUTO 00000KT 10SM CLR 29/17 A2997 RMK AO2 SLP116 T02890172
KDAG 191150Z AUTO 25006KT 10SM CLR 29/17 A2995 RMK AO2 SLP109 T02940172 10339 20294 58001
KDAG 191050Z AUTO 27007KT 10SM CLR 29/17 A2996 RMK AO2 SLP109 T02940172
KDAG 190950Z AUTO 27007KT 10SM CLR 30/17 A2996 RMK AO2 SLP110 T03000172
KDAG 190850Z AUTO 28003KT 10SM CLR 31/17 A2996 RMK AO2 SLP110 T03110172 53006
KDAG 190750Z AUTO 30007KT 10SM CLR 32/17 A2995 RMK AO2 SLP108 T03170167 404170289
KDAG 190650Z AUTO 30009KT 10SM CLR 32/17 A2994 RMK AO2 SLP105 T03220172
KDAG 190550Z AUTO 32010KT 10SM CLR 34/17 A2994 RMK AO2 SLP103 T03390167 10417 20339 51017
KDAG 190450Z AUTO 24009KT 10SM CLR 36/17 A2993 RMK AO2 SLP103 T03610167
KDAG 190350Z AUTO 26007KT 10SM CLR 37/16 A2991 RMK AO2 SLP094 T03720161
KDAG 190250Z AUTO 09015KT 10SM CLR 38/17 A2988 RMK AO2 SLP086 T03780167 53000
KDAG 190150Z AUTO 07010KT 10SM CLR 39/15 A2988 RMK AO2 SLP083 T03940150
KDAG 190050Z AUTO 11010G15KT 10SM CLR 41/13 A2988 RMK AO2 SLP083 T04110133
KDAG 182350Z AUTO 10014G18KT 10SM CLR 41/13 A2988 RMK AO2 SLP085 T04110133 10417 20356 58021
KDAG 182250Z AUTO 07011G18KT 10SM CLR 41/13 A2991 RMK AO2 SLP093 T04110133
KDAG 182150Z AUTO 09013G21KT 10SM CLR 41/13 A2993 RMK AO2 SLP100 T04060128
KDAG 182050Z AUTO 09011G20KT 10SM CLR 41/14 A2995 RMK AO2 SLP107 T04060139 58018
KDAG 181950Z AUTO 10016G22KT 10SM CLR 40/13 A2997 RMK AO2 SLP115 T04000133
KDAG 181850Z AUTO 08019G26KT 10SM CLR 38/17 A2999 RMK AO2 PK WND 08026/1841 SLP121 T03830172
KDAG 181750Z AUTO 07013KT 10SM CLR 37/18 A3001 RMK AO2 SLP127 T03670178 10367 20289 58001
KDAG 181650Z AUTO 10005KT 10SM CLR 34/17 A3002 RMK AO2 SLP131 T03390172
KDAG 181550Z AUTO 35003KT 10SM CLR 33/15 A3003 RMK AO2 SLP133 T03330150
KDAG 181450Z AUTO 31004KT 10SM CLR 32/12 A3001 RMK AO2 SLP127 T03170122 53008
KDAG 181350Z AUTO 30005KT 10SM CLR 29/17 A2997 RMK AO2 SLP115 T02940167
KDAG 181250Z AUTO 29005KT 10SM CLR 29/19 A2997 RMK AO2 SLP115 T02890189
KDAG 181150Z AUTO 07010KT 10SM CLR 30/15 A2998 RMK AO2 SLP118 T03000150 10356 20300 53010
KDAG 181050Z AUTO 26004KT 10SM FEW120 31/13 A2998 RMK AO2 SLP117 T03060133
KDAG 180950Z AUTO 27009KT 10SM CLR 31/14 A2995 RMK AO2 SLP108 T03060139